createdAt,value
2022-12-11T00:00:43.038Z,52.71
2022-12-11T00:02:44.398Z,52.87
2022-12-11T00:04:45.760Z,53.38
2022-12-11T00:06:50.369Z,53.67
2022-12-11T00:08:51.952Z,53.73
2022-12-11T00:10:53.280Z,53.69
2022-12-11T00:12:54.564Z,53.94
2022-12-11T00:14:55.848Z,54.24
2022-12-11T00:16:57.219Z,54.47
2022-12-11T00:18:58.556Z,54.00
2022-12-11T00:20:59.888Z,54.71
2022-12-11T00:23:01.183Z,54.57
2022-12-11T00:25:02.489Z,54.65
2022-12-11T00:27:03.780Z,55.05
2022-12-11T00:29:05.071Z,54.89
2022-12-11T00:31:06.412Z,55.54
2022-12-11T00:33:07.841Z,55.25
2022-12-11T00:35:09.520Z,55.21
2022-12-11T00:37:11.052Z,55.46
2022-12-11T00:39:12.360Z,55.61
2022-12-11T00:41:13.725Z,56.18
2022-12-11T00:43:15.156Z,55.88
2022-12-11T00:45:18.010Z,56.02
2022-12-11T00:47:19.332Z,55.52
2022-12-11T00:49:20.616Z,56.18
2022-12-11T00:51:22.192Z,55.73
2022-12-11T00:53:23.595Z,40.59
2022-12-11T00:55:25.499Z,41.60
2022-12-11T00:57:26.826Z,47.34
2022-12-11T00:59:28.152Z,46.75
2022-12-11T01:01:29.483Z,46.74
2022-12-11T01:03:30.794Z,46.87
2022-12-11T01:05:32.123Z,47.68
2022-12-11T01:07:33.408Z,47.90
2022-12-11T01:09:53.313Z,48.53
2022-12-11T01:11:54.617Z,48.56
2022-12-11T01:13:55.907Z,48.94
2022-12-11T01:15:57.220Z,49.12
2022-12-11T01:17:58.601Z,49.93
2022-12-11T01:19:59.893Z,49.66
2022-12-11T01:22:01.230Z,50.36
2022-12-11T01:24:02.556Z,50.44
2022-12-11T01:26:03.848Z,50.44
2022-12-11T01:28:05.332Z,50.86
2022-12-11T01:30:07.484Z,50.98
2022-12-11T01:32:08.788Z,50.71
2022-12-11T01:34:10.223Z,51.29
2022-12-11T01:36:11.552Z,51.29
2022-12-11T01:38:12.835Z,51.29
2022-12-11T01:40:14.144Z,51.78
2022-12-11T01:42:15.446Z,52.01
2022-12-11T01:44:16.737Z,51.92
2022-12-11T01:46:18.093Z,52.22
2022-12-11T01:48:19.456Z,52.18
2022-12-11T01:50:20.744Z,52.17
2022-12-11T01:52:22.100Z,52.58
2022-12-11T01:54:23.396Z,52.61
2022-12-11T01:56:24.720Z,52.92
2022-12-11T01:58:26.007Z,53.19
2022-12-11T02:00:27.296Z,53.49
2022-12-11T02:02:28.621Z,53.52
2022-12-11T02:04:29.952Z,53.73
2022-12-11T02:06:31.232Z,53.67
2022-12-11T02:08:32.551Z,53.97
2022-12-11T02:10:33.960Z,53.95
2022-12-11T02:12:35.252Z,54.39
2022-12-11T02:14:36.592Z,54.44
2022-12-11T02:16:37.926Z,54.33
2022-12-11T02:18:39.248Z,55.03
2022-12-11T02:20:40.537Z,55.00
2022-12-11T02:22:41.821Z,54.91
2022-12-11T02:24:43.160Z,55.34
2022-12-11T02:26:44.476Z,55.51
2022-12-11T02:28:45.788Z,55.39
2022-12-11T02:30:47.091Z,55.53
2022-12-11T02:32:48.418Z,55.79
2022-12-11T02:34:49.708Z,55.81
2022-12-11T02:36:51.033Z,55.70
2022-12-11T02:38:52.319Z,55.71
2022-12-11T02:40:53.612Z,55.89
2022-12-11T02:42:54.894Z,55.36
2022-12-11T02:44:57.175Z,54.95
2022-12-11T02:46:58.489Z,54.62
2022-12-11T02:48:59.787Z,54.79
2022-12-11T02:51:01.083Z,54.47
2022-12-11T02:53:02.372Z,54.49
2022-12-11T02:55:03.688Z,54.81
2022-12-11T02:57:05.039Z,54.55
2022-12-11T02:59:06.333Z,54.79
2022-12-11T03:01:07.872Z,54.80
2022-12-11T03:03:09.461Z,54.76
2022-12-11T03:05:10.966Z,54.31
2022-12-11T03:07:12.520Z,54.77
2022-12-11T03:09:13.849Z,54.35
2022-12-11T03:11:15.142Z,54.55
2022-12-11T03:13:16.432Z,54.63
2022-12-11T03:15:17.729Z,54.90
2022-12-11T03:17:19.016Z,54.67
2022-12-11T03:19:20.316Z,54.94
2022-12-11T03:21:21.600Z,54.72
2022-12-11T03:23:22.895Z,55.33
2022-12-11T03:25:24.181Z,54.85
2022-12-11T03:27:25.472Z,55.09
2022-12-11T03:29:26.766Z,55.03
2022-12-11T03:31:28.052Z,55.57
2022-12-11T03:33:29.377Z,55.98
2022-12-11T03:35:30.659Z,55.81
2022-12-11T03:37:31.983Z,56.22
2022-12-11T03:39:33.284Z,56.32
2022-12-11T03:41:34.619Z,56.02
2022-12-11T03:43:35.909Z,56.69
2022-12-11T03:45:37.236Z,56.37
2022-12-11T03:47:38.528Z,56.36
2022-12-11T03:49:39.861Z,56.76
2022-12-11T03:51:42.282Z,56.64
2022-12-11T03:53:44.056Z,56.93
2022-12-11T03:55:45.412Z,57.11
2022-12-11T03:57:46.701Z,57.24
2022-12-11T03:59:47.989Z,57.32
2022-12-11T04:01:49.346Z,57.06
2022-12-11T04:03:50.725Z,56.70
2022-12-11T04:05:52.088Z,56.89
2022-12-11T04:07:53.439Z,57.14
2022-12-11T04:09:54.745Z,56.76
2022-12-11T04:11:56.040Z,56.30
2022-12-11T04:14:16.073Z,55.87
2022-12-11T04:16:17.417Z,55.66
2022-12-11T04:18:37.575Z,55.39
2022-12-11T04:20:57.414Z,55.66
2022-12-11T04:23:17.193Z,55.34
2022-12-11T04:25:18.520Z,55.75
2022-12-11T04:27:39.773Z,55.08
2022-12-11T04:29:41.056Z,54.92
2022-12-11T04:31:42.440Z,55.39
2022-12-11T04:33:43.765Z,55.51
2022-12-11T04:35:45.226Z,55.39
2022-12-11T04:37:46.602Z,55.12
2022-12-11T04:39:47.938Z,55.37
2022-12-11T04:41:49.234Z,55.72
2022-12-11T04:43:50.568Z,55.79
2022-12-11T04:45:51.859Z,55.73
2022-12-11T04:47:53.151Z,55.93
2022-12-11T04:49:54.440Z,56.18
2022-12-11T04:51:55.732Z,56.16
2022-12-11T04:53:57.130Z,56.44
2022-12-11T04:55:58.508Z,56.58
2022-12-11T04:57:59.906Z,56.69
2022-12-11T05:00:01.990Z,56.83
2022-12-11T05:02:03.346Z,56.83
2022-12-11T05:04:04.746Z,57.24
2022-12-11T05:06:06.032Z,57.05
2022-12-11T05:08:08.256Z,57.18
2022-12-11T05:10:09.592Z,57.31
2022-12-11T05:12:10.916Z,57.31
2022-12-11T05:14:12.208Z,57.32
2022-12-11T05:16:13.640Z,57.64
2022-12-11T05:18:15.008Z,57.50
2022-12-11T05:20:16.764Z,57.25
2022-12-11T05:22:18.089Z,57.46
2022-12-11T05:24:19.381Z,57.40
2022-12-11T05:26:21.301Z,56.82
2022-12-11T05:28:22.653Z,56.39
2022-12-11T05:30:24.020Z,56.15
2022-12-11T05:32:25.345Z,56.39
2022-12-11T05:34:26.633Z,55.97
2022-12-11T05:36:28.120Z,56.10
2022-12-11T05:38:29.478Z,55.39
2022-12-11T05:40:30.796Z,55.74
2022-12-11T05:42:32.125Z,55.56
2022-12-11T05:44:33.836Z,55.26
2022-12-11T05:46:35.703Z,55.41
2022-12-11T05:48:37.116Z,55.57
2022-12-11T05:50:38.403Z,55.46
2022-12-11T05:52:39.696Z,55.39
2022-12-11T05:54:41.021Z,55.31
2022-12-11T05:56:42.319Z,55.66
2022-12-11T05:58:43.645Z,56.13
2022-12-11T06:00:44.933Z,55.91
2022-12-11T06:02:46.419Z,56.40
2022-12-11T06:04:47.740Z,56.07
2022-12-11T06:06:49.033Z,55.82
2022-12-11T06:08:50.358Z,56.24
2022-12-11T06:10:51.695Z,56.43
2022-12-11T06:12:53.081Z,57.09
2022-12-11T06:14:54.445Z,56.69
2022-12-11T06:16:55.740Z,57.01
2022-12-11T06:18:58.367Z,56.85
2022-12-11T06:20:59.990Z,57.31
2022-12-11T06:23:01.575Z,57.51
2022-12-11T06:25:02.867Z,57.64
2022-12-11T06:27:04.165Z,57.54
2022-12-11T06:29:09.170Z,57.63
2022-12-11T06:31:14.108Z,57.58
2022-12-11T06:33:17.273Z,57.73
2022-12-11T06:35:18.640Z,57.82
2022-12-11T06:37:19.929Z,57.47
2022-12-11T06:39:21.229Z,57.84
2022-12-11T06:41:22.547Z,57.34
2022-12-11T06:43:24.256Z,56.99
2022-12-11T06:45:25.597Z,56.64
2022-12-11T06:47:27.287Z,56.46
2022-12-11T06:49:28.598Z,56.27
2022-12-11T06:51:29.884Z,56.35
2022-12-11T06:53:31.256Z,55.98
2022-12-11T06:55:32.656Z,56.39
2022-12-11T06:57:34.492Z,56.23
2022-12-11T06:59:35.782Z,56.02
2022-12-11T07:01:37.079Z,56.41
2022-12-11T07:03:38.441Z,56.52
2022-12-11T07:05:39.804Z,56.14
2022-12-11T07:07:41.129Z,56.29
2022-12-11T07:09:42.456Z,56.31
2022-12-11T07:11:43.761Z,56.46
2022-12-11T07:13:45.123Z,56.79
2022-12-11T07:15:46.409Z,57.03
2022-12-11T07:17:47.758Z,56.71
2022-12-11T07:19:49.088Z,57.35
2022-12-11T07:21:50.390Z,57.05
2022-12-11T07:23:51.711Z,57.37
2022-12-11T07:25:53.813Z,57.42
2022-12-11T07:27:55.168Z,57.20
2022-12-11T07:29:56.523Z,57.39
2022-12-11T07:32:00.558Z,57.42
2022-12-11T07:34:02.323Z,57.66
2022-12-11T07:36:03.617Z,57.47
2022-12-11T07:38:04.948Z,57.57
2022-12-11T07:40:06.293Z,57.18
2022-12-11T07:42:07.572Z,57.07
2022-12-11T07:44:08.873Z,57.12
2022-12-11T07:46:10.229Z,56.71
2022-12-11T07:48:15.561Z,56.95
2022-12-11T07:50:17.113Z,56.29
2022-12-11T07:52:18.488Z,56.17
2022-12-11T07:54:21.047Z,55.65
2022-12-11T07:56:22.357Z,55.60
2022-12-11T07:58:23.722Z,55.53
2022-12-11T08:00:25.048Z,55.18
2022-12-11T08:02:26.476Z,55.11
2022-12-11T08:04:27.815Z,54.98
2022-12-11T08:06:29.209Z,55.16
2022-12-11T08:08:30.501Z,55.63
2022-12-11T08:10:31.793Z,55.72
2022-12-11T08:12:33.124Z,55.71
2022-12-11T08:14:34.412Z,55.58
2022-12-11T08:16:36.461Z,55.95
2022-12-11T08:18:37.965Z,55.83
2022-12-11T08:20:39.287Z,55.11
2022-12-11T08:22:43.639Z,55.40
2022-12-11T08:24:44.970Z,55.58
2022-12-11T08:26:46.258Z,55.61
2022-12-11T08:28:47.547Z,56.00
2022-12-11T08:30:48.869Z,55.61
2022-12-11T08:32:50.245Z,56.04
2022-12-11T08:34:51.732Z,55.90
2022-12-11T08:36:53.072Z,56.21
2022-12-11T08:38:54.400Z,56.27
2022-12-11T08:40:55.692Z,56.24
2022-12-11T08:42:56.989Z,56.22
2022-12-11T08:44:58.289Z,55.99
2022-12-11T08:46:59.589Z,56.13
2022-12-11T08:49:00.951Z,56.14
2022-12-11T08:51:02.301Z,55.98
2022-12-11T08:53:03.596Z,55.60
2022-12-11T08:55:04.899Z,55.50
2022-12-11T08:57:06.204Z,55.19
2022-12-11T08:59:11.484Z,54.62
2022-12-11T09:01:12.824Z,54.62
2022-12-11T09:03:14.328Z,54.19
2022-12-11T09:05:15.665Z,54.02
2022-12-11T09:07:19.638Z,54.09
2022-12-11T09:09:20.956Z,54.17
2022-12-11T09:11:22.417Z,53.63
2022-12-11T09:13:23.709Z,53.47
2022-12-11T09:15:30.832Z,53.60
2022-12-11T09:17:32.184Z,53.07
2022-12-11T09:19:33.505Z,53.55
2022-12-11T09:21:37.825Z,52.94
2022-12-11T09:23:39.136Z,53.00
2022-12-11T09:25:40.441Z,53.02
2022-12-11T09:27:41.775Z,52.98
2022-12-11T09:29:43.100Z,52.81
2022-12-11T09:31:44.428Z,52.82
2022-12-11T09:33:45.755Z,52.89
2022-12-11T09:35:47.093Z,52.83
2022-12-11T09:37:49.417Z,52.85
2022-12-11T09:39:50.707Z,52.87
2022-12-11T09:41:52.021Z,53.14
2022-12-11T09:43:53.388Z,52.93
2022-12-11T09:45:56.270Z,52.89
2022-12-11T09:47:57.654Z,52.99
2022-12-11T09:49:58.947Z,52.93
2022-12-11T09:52:00.272Z,52.91
2022-12-11T09:54:01.566Z,53.12
2022-12-11T09:56:02.871Z,53.30
2022-12-11T09:58:05.226Z,53.38
2022-12-11T10:00:09.507Z,53.71
2022-12-11T10:02:10.941Z,53.51
2022-12-11T10:04:12.225Z,53.69
2022-12-11T10:06:13.659Z,53.92
2022-12-11T10:08:14.969Z,53.77
2022-12-11T10:10:16.335Z,54.09
2022-12-11T10:12:20.580Z,54.09
2022-12-11T10:14:21.874Z,53.96
2022-12-11T10:16:23.203Z,53.89
2022-12-11T10:18:25.088Z,54.04
2022-12-11T10:20:31.209Z,54.18
2022-12-11T10:22:32.507Z,54.21
2022-12-11T10:25:09.545Z,54.09
2022-12-11T10:26:57.868Z,53.97
2022-12-11T10:28:59.166Z,53.56
2022-12-11T10:31:00.552Z,53.56
2022-12-11T10:33:01.870Z,41.64
2022-12-11T10:35:03.184Z,40.32
2022-12-11T10:37:04.472Z,39.62
2022-12-11T10:39:05.765Z,39.90
2022-12-11T10:41:07.088Z,39.16
2022-12-11T10:43:08.389Z,39.05
2022-12-11T10:45:10.099Z,38.64
2022-12-11T10:47:11.780Z,42.69
2022-12-11T10:49:13.104Z,41.33
2022-12-11T10:51:14.384Z,39.91
2022-12-11T10:53:15.669Z,40.93
2022-12-11T10:55:16.956Z,41.26
2022-12-11T10:57:18.240Z,42.21
2022-12-11T10:59:23.947Z,42.54
2022-12-11T11:01:25.535Z,43.57
2022-12-11T11:03:26.862Z,44.17
2022-12-11T11:05:28.220Z,44.68
2022-12-11T11:07:29.508Z,45.13
2022-12-11T11:09:30.829Z,45.78
2022-12-11T11:11:34.034Z,46.15
2022-12-11T11:13:35.958Z,46.44
2022-12-11T11:15:37.342Z,46.74
2022-12-11T11:17:44.655Z,46.98
2022-12-11T11:19:55.185Z,47.30
2022-12-11T11:21:56.492Z,47.53
2022-12-11T11:24:00.611Z,47.58
2022-12-11T11:26:03.104Z,47.79
2022-12-11T11:28:04.436Z,48.00
2022-12-11T11:30:05.718Z,48.29
2022-12-11T11:32:07.045Z,48.17
2022-12-11T11:34:10.446Z,48.30
2022-12-11T11:36:11.736Z,48.67
2022-12-11T11:38:13.028Z,48.53
2022-12-11T11:40:14.694Z,48.78
2022-12-11T11:42:16.128Z,48.86
2022-12-11T11:44:17.554Z,48.94
2022-12-11T11:46:18.959Z,48.92
2022-12-11T11:48:20.264Z,49.17
2022-12-11T11:50:21.591Z,49.09
2022-12-11T11:52:25.276Z,49.27
2022-12-11T11:54:26.579Z,49.49
2022-12-11T11:56:30.832Z,49.45
2022-12-11T11:58:32.124Z,49.66
2022-12-11T12:00:34.183Z,49.61
2022-12-11T12:02:35.649Z,49.73
2022-12-11T12:04:37.140Z,49.69
2022-12-11T12:06:38.480Z,49.82
2022-12-11T12:08:39.806Z,49.89
2022-12-11T12:10:41.088Z,50.01
2022-12-11T12:12:45.284Z,50.13
2022-12-11T12:14:53.735Z,50.15
2022-12-11T12:16:55.176Z,49.86
2022-12-11T12:18:56.465Z,50.13
2022-12-11T12:20:57.793Z,50.14
2022-12-11T12:22:59.596Z,50.16
2022-12-11T12:25:00.885Z,50.20
2022-12-11T12:27:02.220Z,50.34
2022-12-11T12:29:03.544Z,50.50
2022-12-11T12:31:04.917Z,50.71
2022-12-11T12:33:06.259Z,50.50
2022-12-11T12:35:07.633Z,51.30
2022-12-11T12:37:09.058Z,51.23
2022-12-11T12:39:10.351Z,50.90
2022-12-11T12:41:14.210Z,50.46
2022-12-11T12:43:15.565Z,50.85
2022-12-11T12:45:16.861Z,51.04
2022-12-11T12:47:18.190Z,51.15
2022-12-11T12:49:19.521Z,51.28
2022-12-11T12:51:20.847Z,50.92
2022-12-11T12:53:22.132Z,51.20
2022-12-11T12:55:23.464Z,51.20
2022-12-11T12:57:24.780Z,51.39
2022-12-11T12:59:26.129Z,51.83
2022-12-11T13:01:27.514Z,51.40
2022-12-11T13:03:30.314Z,51.10
2022-12-11T13:05:31.599Z,51.28
2022-12-11T13:07:32.933Z,51.58
2022-12-11T13:09:34.229Z,51.38
2022-12-11T13:11:35.603Z,51.85
2022-12-11T13:13:36.952Z,51.23
2022-12-11T13:15:40.535Z,51.96
2022-12-11T13:17:42.644Z,51.26
2022-12-11T13:19:43.936Z,51.51
2022-12-11T13:21:48.240Z,51.29
2022-12-11T13:23:49.529Z,51.52
2022-12-11T13:25:50.932Z,51.72
2022-12-11T13:27:52.333Z,51.82
2022-12-11T13:29:53.656Z,52.31
2022-12-11T13:31:55.002Z,52.54
2022-12-11T13:33:56.363Z,52.45
2022-12-11T13:35:57.698Z,52.62
2022-12-11T13:37:58.984Z,52.40
2022-12-11T13:40:00.289Z,52.26
2022-12-11T13:42:01.589Z,52.42
2022-12-11T13:44:03.033Z,52.78
2022-12-11T13:46:04.466Z,52.74
2022-12-11T13:48:06.040Z,52.70
2022-12-11T13:50:07.388Z,52.80
2022-12-11T13:52:08.725Z,52.83
2022-12-11T13:54:15.137Z,52.91
2022-12-11T13:56:17.932Z,53.13
2022-12-11T13:58:19.266Z,53.14
2022-12-11T14:00:20.740Z,52.86
2022-12-11T14:02:22.112Z,52.89
2022-12-11T14:04:23.588Z,53.11
2022-12-11T14:06:24.923Z,53.08
2022-12-11T14:08:29.826Z,53.42
2022-12-11T14:10:31.219Z,53.16
2022-12-11T14:12:32.824Z,53.08
2022-12-11T14:14:34.165Z,53.36
2022-12-11T14:16:35.511Z,53.42
2022-12-11T14:18:36.821Z,53.68
2022-12-11T14:20:38.104Z,53.35
2022-12-11T14:22:39.397Z,53.18
2022-12-11T14:24:40.725Z,53.28
2022-12-11T14:26:42.049Z,53.63
2022-12-11T14:28:43.331Z,53.37
2022-12-11T14:30:47.556Z,53.58
2022-12-11T14:32:48.853Z,53.73
2022-12-11T14:34:50.304Z,53.69
2022-12-11T14:36:51.628Z,54.10
2022-12-11T14:38:53.133Z,54.22
2022-12-11T14:40:55.103Z,54.19
2022-12-11T14:43:00.115Z,54.32
2022-12-11T14:45:01.854Z,54.28
2022-12-11T14:47:03.161Z,54.58
2022-12-11T14:49:04.492Z,54.41
2022-12-11T14:51:05.775Z,54.46
2022-12-11T14:53:07.089Z,54.61
2022-12-11T14:55:08.776Z,54.73
2022-12-11T14:57:10.221Z,54.45
2022-12-11T14:59:11.510Z,54.56
2022-12-11T15:01:12.792Z,54.69
2022-12-11T15:03:14.158Z,55.07
2022-12-11T15:05:15.954Z,54.68
2022-12-11T15:07:17.244Z,55.10
2022-12-11T15:09:18.548Z,55.42
2022-12-11T15:11:19.873Z,55.13
2022-12-11T15:13:21.760Z,55.49
2022-12-11T15:15:23.096Z,55.42
2022-12-11T15:17:27.460Z,55.75
2022-12-11T15:19:28.807Z,55.56
2022-12-11T15:21:30.100Z,55.44
2022-12-11T15:23:31.432Z,55.44
2022-12-11T15:25:32.715Z,55.21
2022-12-11T15:27:35.600Z,55.39
2022-12-11T15:29:36.979Z,55.06
2022-12-11T15:31:38.272Z,55.07
2022-12-11T15:33:39.588Z,55.13
2022-12-11T15:35:40.884Z,54.85
2022-12-11T15:37:44.832Z,54.92
2022-12-11T15:39:46.138Z,53.31
2022-12-11T15:41:47.428Z,54.24
2022-12-11T15:43:51.734Z,52.57
2022-12-11T15:45:55.315Z,53.16
2022-12-11T15:47:57.303Z,53.68
2022-12-11T15:50:01.313Z,52.95
2022-12-11T15:52:02.663Z,53.28
2022-12-11T15:54:03.948Z,53.19
2022-12-11T15:56:05.252Z,53.03
2022-12-11T15:58:06.569Z,53.10
2022-12-11T16:00:07.852Z,52.94
2022-12-11T16:02:09.196Z,53.15
2022-12-11T16:04:10.945Z,52.62
2022-12-11T16:06:12.279Z,52.41
2022-12-11T16:08:15.099Z,52.71
2022-12-11T16:10:16.856Z,52.17
2022-12-11T16:12:18.352Z,51.89
2022-12-11T16:14:19.681Z,51.37
2022-12-11T16:16:21.040Z,52.02
2022-12-11T16:18:22.383Z,51.57
2022-12-11T16:20:26.588Z,50.50
2022-12-11T16:22:27.895Z,50.70
2022-12-11T16:24:29.219Z,51.12
2022-12-11T16:26:30.515Z,51.55
2022-12-11T16:28:31.801Z,51.27
2022-12-11T16:30:33.139Z,51.91
2022-12-11T16:32:34.423Z,51.73
2022-12-11T16:34:35.772Z,51.67
2022-12-11T16:36:37.072Z,51.08
2022-12-11T16:38:38.353Z,50.49
2022-12-11T16:40:40.552Z,50.47
2022-12-11T16:42:41.841Z,50.83
2022-12-11T16:44:44.300Z,50.30
2022-12-11T16:46:45.905Z,50.39
2022-12-11T16:48:47.228Z,50.09
2022-12-11T16:50:48.616Z,49.78
2022-12-11T16:52:53.179Z,50.57
2022-12-11T16:54:54.658Z,50.04
2022-12-11T16:56:55.953Z,50.72
2022-12-11T16:58:57.284Z,50.35
2022-12-11T17:01:02.047Z,53.24
2022-12-11T17:03:03.571Z,52.47
2022-12-11T17:05:04.928Z,52.82
2022-12-11T17:07:06.212Z,52.70
2022-12-11T17:09:07.506Z,53.41
2022-12-11T17:11:09.059Z,53.02
2022-12-11T17:13:10.440Z,53.57
2022-12-11T17:15:12.122Z,53.35
2022-12-11T17:17:13.664Z,53.50
2022-12-11T17:19:15.094Z,54.58
2022-12-11T17:21:19.501Z,54.73
2022-12-11T17:23:20.791Z,54.62
2022-12-11T17:25:22.310Z,54.79
2022-12-11T17:27:23.617Z,54.99
2022-12-11T17:29:24.959Z,55.83
2022-12-11T17:31:26.322Z,54.17
2022-12-11T17:33:27.624Z,54.87
2022-12-11T17:35:28.916Z,54.90
2022-12-11T17:37:30.595Z,54.57
2022-12-11T17:39:31.926Z,54.62
2022-12-11T17:41:33.228Z,54.40
2022-12-11T17:43:34.563Z,54.88
2022-12-11T17:45:35.848Z,55.00
2022-12-11T17:47:37.144Z,54.76
2022-12-11T17:49:38.469Z,55.15
2022-12-11T17:51:39.770Z,54.31
2022-12-11T17:53:41.096Z,54.52
2022-12-11T17:55:42.839Z,54.46
2022-12-11T17:57:44.218Z,54.28
2022-12-11T17:59:45.504Z,54.32
2022-12-11T18:01:46.867Z,54.41
2022-12-11T18:03:48.286Z,54.20
2022-12-11T18:05:49.612Z,54.69
2022-12-11T18:07:55.975Z,54.64
2022-12-11T18:09:59.107Z,53.96
2022-12-11T18:12:00.433Z,54.13
2022-12-11T18:14:01.758Z,53.63
2022-12-11T18:16:03.181Z,53.16
2022-12-11T18:18:04.584Z,52.81
2022-12-11T18:20:05.880Z,52.39
2022-12-11T18:22:07.172Z,51.79
2022-12-11T18:24:08.906Z,51.93
2022-12-11T18:26:11.187Z,51.78
2022-12-11T18:28:12.473Z,51.83
2022-12-11T18:30:14.258Z,52.11
2022-12-11T18:32:15.609Z,51.85
2022-12-11T18:34:16.903Z,52.49
2022-12-11T18:36:18.189Z,52.27
2022-12-11T18:38:19.496Z,52.20
2022-12-11T18:40:20.829Z,52.72
2022-12-11T18:42:32.791Z,52.89
2022-12-11T18:44:34.844Z,52.78
2022-12-11T18:46:36.174Z,53.01
2022-12-11T18:48:37.637Z,52.89
2022-12-11T18:50:38.925Z,53.27
2022-12-11T18:52:40.262Z,52.93
2022-12-11T18:54:41.539Z,53.15
2022-12-11T18:56:42.831Z,52.76
2022-12-11T18:58:44.206Z,52.96
2022-12-11T19:00:45.751Z,53.28
2022-12-11T19:02:47.349Z,52.91
2022-12-11T19:04:48.663Z,53.45
2022-12-11T19:06:49.955Z,53.57
2022-12-11T19:08:51.304Z,53.12
2022-12-11T19:10:52.591Z,53.75
2022-12-11T19:12:54.016Z,53.60
2022-12-11T19:14:55.495Z,53.93
2022-12-11T19:16:56.930Z,54.11
2022-12-11T19:19:01.319Z,53.79
2022-12-11T19:21:08.797Z,53.90
2022-12-11T19:23:10.574Z,53.55
2022-12-11T19:25:12.096Z,53.50
2022-12-11T19:27:14.081Z,52.98
2022-12-11T19:29:18.879Z,53.19
2022-12-11T19:31:20.297Z,52.94
2022-12-11T19:33:21.882Z,52.79
2022-12-11T19:35:23.175Z,52.42
2022-12-11T19:37:24.464Z,52.79
2022-12-11T19:39:25.812Z,52.71
2022-12-11T19:41:27.109Z,52.67
2022-12-11T19:43:28.492Z,52.25
2022-12-11T19:45:29.781Z,52.28
2022-12-11T19:47:31.068Z,52.06
2022-12-11T19:49:38.422Z,51.99
2022-12-11T19:51:40.078Z,52.17
2022-12-11T19:53:41.356Z,51.84
2022-12-11T19:55:42.756Z,52.24
2022-12-11T19:57:44.288Z,52.19
2022-12-11T19:59:45.617Z,51.92
2022-12-11T20:01:48.202Z,51.85
2022-12-11T20:03:52.628Z,51.80
2022-12-11T20:05:54.017Z,52.26
2022-12-11T20:07:55.402Z,52.26
2022-12-11T20:09:56.758Z,52.08
2022-12-11T20:11:58.044Z,52.53
2022-12-11T20:14:05.620Z,52.76
2022-12-11T20:16:07.325Z,52.68
2022-12-11T20:18:09.493Z,53.13
2022-12-11T20:20:13.019Z,52.96
2022-12-11T20:22:14.313Z,53.40
2022-12-11T20:24:15.595Z,53.12
2022-12-11T20:26:17.084Z,53.35
2022-12-11T20:28:18.371Z,53.56
2022-12-11T20:30:19.666Z,53.71
2022-12-11T20:32:20.972Z,53.71
2022-12-11T20:34:22.308Z,53.77
2022-12-11T20:36:23.608Z,52.74
2022-12-11T20:38:27.726Z,53.30
2022-12-11T20:40:32.637Z,52.56
2022-12-11T20:42:33.928Z,52.55
2022-12-11T20:44:35.221Z,52.07
2022-12-11T20:46:40.005Z,51.89
2022-12-11T20:48:41.318Z,51.79
2022-12-11T20:50:42.601Z,51.74
2022-12-11T20:52:43.888Z,51.37
2022-12-11T20:54:45.176Z,51.37
2022-12-11T20:56:46.482Z,50.87
2022-12-11T20:58:47.821Z,51.15
2022-12-11T21:00:49.160Z,51.15
2022-12-11T21:02:50.528Z,51.00
2022-12-11T21:04:54.860Z,50.99
2022-12-11T21:06:56.256Z,51.14
2022-12-11T21:09:00.127Z,51.24
2022-12-11T21:11:01.425Z,51.49
2022-12-11T21:13:02.713Z,51.94
2022-12-11T21:15:04.009Z,51.69
2022-12-11T21:17:05.399Z,51.97
2022-12-11T21:19:06.812Z,51.59
2022-12-11T21:21:08.145Z,46.42
2022-12-11T21:23:09.444Z,48.00
2022-12-11T21:25:11.032Z,48.08
2022-12-11T21:27:12.591Z,48.70
2022-12-11T21:29:13.873Z,49.28
2022-12-11T21:31:15.200Z,49.96
2022-12-11T21:33:16.588Z,50.54
2022-12-11T21:35:17.890Z,50.95
2022-12-11T21:37:19.184Z,51.04
2022-12-11T21:39:20.469Z,51.30
2022-12-11T21:41:21.794Z,51.56
2022-12-11T21:43:23.185Z,51.85
2022-12-11T21:45:59.970Z,52.36
2022-12-11T21:47:46.085Z,52.22
2022-12-11T21:49:47.365Z,52.57
2022-12-11T21:51:48.716Z,52.22
2022-12-11T21:53:50.000Z,52.27
2022-12-11T21:55:51.347Z,52.03
2022-12-11T21:57:52.669Z,51.60
2022-12-11T21:59:53.961Z,51.53
2022-12-11T22:01:55.265Z,51.10
2022-12-11T22:03:56.621Z,50.85
2022-12-11T22:05:57.957Z,50.90
2022-12-11T22:07:59.289Z,50.98
2022-12-11T22:10:00.595Z,50.70
2022-12-11T22:12:01.893Z,50.63
2022-12-11T22:14:03.300Z,50.50
2022-12-11T22:16:04.625Z,50.57
2022-12-11T22:18:05.954Z,50.44
2022-12-11T22:20:07.273Z,50.65
2022-12-11T22:22:08.570Z,51.30
2022-12-11T22:24:09.964Z,51.54
2022-12-11T22:26:11.289Z,51.42
2022-12-11T22:28:12.699Z,51.04
2022-12-11T22:30:13.981Z,51.62
2022-12-11T22:32:15.279Z,51.51
2022-12-11T22:34:16.600Z,51.62
2022-12-11T22:36:19.014Z,51.80
2022-12-11T22:38:21.592Z,52.07
2022-12-11T22:40:23.044Z,52.53
2022-12-11T22:42:24.332Z,52.22
2022-12-11T22:44:25.787Z,52.45
2022-12-11T22:46:27.099Z,52.80
2022-12-11T22:48:28.418Z,53.16
2022-12-11T22:50:29.708Z,52.93
2022-12-11T22:52:31.115Z,53.35
2022-12-11T22:54:32.401Z,54.00
2022-12-11T22:56:33.711Z,54.01
2022-12-11T22:58:34.995Z,54.23
2022-12-11T23:00:36.324Z,54.30
2022-12-11T23:02:37.727Z,54.58
2022-12-11T23:04:39.212Z,54.49
2022-12-11T23:06:40.542Z,54.52
2022-12-11T23:08:41.912Z,54.18
2022-12-11T23:10:43.320Z,54.02
2022-12-11T23:12:44.644Z,53.77
2022-12-11T23:14:45.925Z,53.82
2022-12-11T23:16:47.300Z,53.39
2022-12-11T23:18:48.606Z,52.69
2022-12-11T23:20:49.941Z,52.38
2022-12-11T23:22:51.293Z,52.58
2022-12-11T23:24:52.576Z,52.34
2022-12-11T23:26:53.880Z,52.08
2022-12-11T23:28:55.204Z,52.01
2022-12-11T23:30:56.587Z,51.80
2022-12-11T23:32:57.937Z,51.86
2022-12-11T23:34:59.236Z,52.18
2022-12-11T23:37:00.652Z,52.24
2022-12-11T23:39:02.112Z,52.26
2022-12-11T23:41:03.405Z,52.04
2022-12-11T23:43:04.728Z,52.11
2022-12-11T23:45:06.019Z,51.87
2022-12-11T23:47:07.349Z,52.01
2022-12-11T23:49:08.640Z,52.12
2022-12-11T23:51:09.976Z,52.61
2022-12-11T23:53:11.277Z,52.91
2022-12-11T23:55:12.825Z,52.66
2022-12-11T23:57:14.309Z,52.99
2022-12-11T23:59:15.648Z,53.19
